Time;durP1;ratioP1;P1;durP2;ratioP2;P2;SDS_P1;SDS_P2;PMS_P1;PMS_P2;Temp;Humidity;BMP_temperature;BMP_pressure;BME280_temperature;BME280_humidity;BME280_pressure;Samples;Min_cycle;Max_cycle;Signal;HPM_P1;HPM_P2
2022/05/14 00:01:17;;;;;;;41.53;7.50;;;14.90;99.90;;;;;;5065648;28;20773;-67
2022/05/14 00:03:43;;;;;;;34.80;6.90;;;14.90;99.90;;;;;;5070884;28;20841;-66
2022/05/14 00:06:13;;;;;;;36.47;7.28;;;14.90;99.90;;;;;;5065928;28;20442;-67
2022/05/14 00:08:39;;;;;;;41.97;7.70;;;14.90;99.90;;;;;;5070178;28;20498;-68
2022/05/14 00:13:51;;;;;;;40.13;7.37;;;14.90;99.90;;;;;;5068493;28;20400;-67
2022/05/14 00:16:18;;;;;;;43.92;7.78;;;14.90;99.90;;;;;;5068688;28;20896;-65
2022/05/14 00:18:45;;;;;;;41.17;7.50;;;14.90;99.90;;;;;;5069254;28;20437;-66
2022/05/14 00:21:11;;;;;;;35.58;7.53;;;14.90;99.90;;;;;;5066091;28;20763;-67
2022/05/14 00:23:37;;;;;;;38.17;7.18;;;14.90;99.90;;;;;;5067772;28;20449;-66
2022/05/14 00:26:04;;;;;;;42.07;7.33;;;14.90;99.90;;;;;;5066647;28;20416;-65
2022/05/14 00:28:29;;;;;;;46.42;7.72;;;14.90;99.90;;;;;;5068230;28;20922;-66
2022/05/14 00:30:55;;;;;;;48.22;7.05;;;14.90;99.90;;;;;;5065566;28;20440;-64
2022/05/14 00:33:21;;;;;;;41.97;7.53;;;15.00;99.90;;;;;;5065017;28;20491;-65
2022/05/14 00:35:47;;;;;;;44.50;7.50;;;15.00;99.90;;;;;;5065593;28;20786;-67
2022/05/14 00:38:13;;;;;;;50.75;7.72;;;15.00;99.90;;;;;;5067473;28;20416;-66
2022/05/14 00:40:47;;;;;;;42.85;7.68;;;15.00;99.90;;;;;;5064810;28;20502;-65
2022/05/14 00:43:15;;;;;;;38.05;7.13;;;14.90;99.90;;;;;;5069558;28;20384;-67
2022/05/14 00:45:47;;;;;;;39.00;7.65;;;14.90;99.90;;;;;;5067088;28;20422;-66
2022/05/14 00:48:13;;;;;;;45.47;7.88;;;14.90;99.90;;;;;;5066078;28;20448;-68
2022/05/14 00:50:54;;;;;;;43.85;8.30;;;14.90;99.90;;;;;;5065420;28;20523;-66
2022/05/14 00:53:26;;;;;;;43.03;7.47;;;14.90;99.90;;;;;;5067530;28;20448;-66
2022/05/14 00:55:56;;;;;;;47.67;7.82;;;14.80;99.90;;;;;;5066601;28;20404;-65
2022/05/14 00:58:45;;;;;;;43.17;6.85;;;14.80;99.90;;;;;;5067837;28;20892;-66
2022/05/14 01:01:12;;;;;;;38.03;7.78;;;14.80;99.90;;;;;;5049979;28;20756;-66
2022/05/14 01:03:38;;;;;;;41.30;7.23;;;14.80;99.90;;;;;;5068332;28;20487;-68
2022/05/14 01:06:08;;;;;;;40.72;7.40;;;14.80;99.90;;;;;;5064875;28;20498;-67
2022/05/14 01:08:35;;;;;;;40.80;7.93;;;14.80;99.90;;;;;;5066435;28;20404;-67
2022/05/14 01:11:01;;;;;;;40.38;7.88;;;14.80;99.90;;;;;;5061437;28;20827;-67
2022/05/14 01:13:27;;;;;;;41.45;7.70;;;14.80;99.90;;;;;;5068867;28;20499;-65
2022/05/14 01:15:59;;;;;;;40.90;7.35;;;14.80;99.90;;;;;;5065195;28;20518;-68
2022/05/14 01:18:30;;;;;;;42.33;7.85;;;14.80;99.90;;;;;;5065579;28;20578;-66
2022/05/14 01:20:59;;;;;;;45.30;7.70;;;14.80;99.90;;;;;;5065559;28;20481;-66
2022/05/14 01:26:36;;;;;;;43.17;7.73;;;14.80;99.90;;;;;;5066177;28;20404;-67
2022/05/14 01:29:15;;;;;;;44.00;7.90;;;14.80;99.90;;;;;;5064687;28;20900;-66
2022/05/14 01:31:41;;;;;;;42.58;7.95;;;14.80;99.90;;;;;;5065827;28;20400;-68
2022/05/14 01:34:11;;;;;;;49.03;7.72;;;14.80;99.90;;;;;;5066112;28;20449;-67
2022/05/14 01:36:39;;;;;;;42.42;7.60;;;14.80;99.90;;;;;;5049044;28;20420;-69
2022/05/14 01:39:06;;;;;;;43.00;7.90;;;14.80;99.90;;;;;;5065548;28;20907;-66
2022/05/14 01:41:32;;;;;;;50.33;8.40;;;14.80;99.90;;;;;;5062861;28;20469;-68
2022/05/14 01:43:57;;;;;;;44.43;8.17;;;14.80;99.90;;;;;;5065986;28;20412;-67
2022/05/14 01:46:23;;;;;;;43.28;8.02;;;14.70;99.90;;;;;;5065436;28;20493;-65
2022/05/14 01:48:50;;;;;;;45.05;8.02;;;14.70;99.90;;;;;;5064340;28;20414;-66
2022/05/14 01:51:16;;;;;;;49.47;8.55;;;14.70;99.90;;;;;;5064442;28;20411;-68
2022/05/14 01:53:43;;;;;;;48.77;8.37;;;14.70;99.90;;;;;;5066345;28;20898;-65
2022/05/14 01:56:09;;;;;;;45.83;8.03;;;14.70;99.90;;;;;;5064718;28;20887;-67
2022/05/14 01:58:38;;;;;;;47.03;8.73;;;14.70;99.90;;;;;;5064491;28;20403;-69
2022/05/14 02:01:33;;;;;;;45.10;9.15;;;14.70;99.90;;;;;;5064756;28;20419;-64
2022/05/14 02:04:05;;;;;;;43.95;8.18;;;14.70;99.90;;;;;;5066551;28;20770;-65
2022/05/14 02:06:32;;;;;;;52.78;8.52;;;14.70;99.90;;;;;;5066275;28;20522;-64
2022/05/14 02:09:00;;;;;;;48.70;8.63;;;14.70;99.90;;;;;;5062682;28;20419;-65
2022/05/14 02:11:27;;;;;;;42.90;8.55;;;14.70;99.90;;;;;;5063288;28;20498;-66
2022/05/14 02:14:01;;;;;;;48.97;9.10;;;14.70;99.90;;;;;;5064224;28;20438;-66
2022/05/14 02:16:27;;;;;;;55.08;8.55;;;14.70;99.90;;;;;;5065525;28;20914;-65
2022/05/14 02:18:55;;;;;;;46.28;8.63;;;14.70;99.90;;;;;;5065387;28;20400;-66
2022/05/14 02:21:24;;;;;;;42.53;8.30;;;14.60;99.90;;;;;;5065617;28;20418;-66
2022/05/14 02:23:54;;;;;;;41.83;8.37;;;14.60;99.90;;;;;;5066268;28;20404;-68
2022/05/14 02:26:22;;;;;;;46.28;8.20;;;14.60;99.90;;;;;;5064520;28;20415;-65
2022/05/14 02:28:47;;;;;;;44.58;9.25;;;14.60;99.90;;;;;;5047839;28;20415;-65
2022/05/14 02:31:13;;;;;;;50.03;8.90;;;14.60;99.90;;;;;;5063230;28;20415;-65
2022/05/14 02:33:39;;;;;;;45.57;8.97;;;14.60;99.90;;;;;;5065688;28;20931;-66
2022/05/14 02:36:10;;;;;;;43.75;9.10;;;14.60;99.90;;;;;;5063546;28;20408;-64
2022/05/14 02:38:36;;;;;;;49.50;9.32;;;14.50;99.90;;;;;;5065353;28;20447;-65
2022/05/14 02:41:04;;;;;;;44.33;9.10;;;14.60;99.90;;;;;;5064610;28;20414;-67
2022/05/14 02:43:32;;;;;;;45.72;9.05;;;14.50;99.90;;;;;;5064385;28;20423;-67
2022/05/14 02:45:59;;;;;;;42.17;8.68;;;14.50;99.90;;;;;;5062481;28;20831;-67
2022/05/14 02:48:25;;;;;;;41.77;9.07;;;14.50;99.90;;;;;;5064767;28;20407;-68
2022/05/14 02:50:51;;;;;;;44.25;9.38;;;14.50;99.90;;;;;;5065314;28;20435;-66
2022/05/14 02:53:17;;;;;;;46.72;8.85;;;14.50;99.90;;;;;;5065644;28;20399;-66
2022/05/14 02:55:43;;;;;;;44.78;9.18;;;14.50;99.90;;;;;;5064630;28;20494;-64
2022/05/14 02:58:09;;;;;;;46.78;9.00;;;14.50;99.90;;;;;;5066088;28;20420;-68
2022/05/14 03:00:35;;;;;;;46.95;9.35;;;14.50;99.90;;;;;;5066429;28;20438;-69
2022/05/14 03:03:01;;;;;;;44.53;8.77;;;14.50;99.90;;;;;;5069500;28;20404;-67
2022/05/14 03:05:28;;;;;;;51.45;8.80;;;14.50;99.90;;;;;;5068373;28;20405;-65
2022/05/14 03:07:54;;;;;;;41.30;8.93;;;14.50;99.90;;;;;;5063137;28;20506;-64
2022/05/14 03:10:20;;;;;;;44.67;8.60;;;14.40;99.90;;;;;;5068731;28;20415;-66
2022/05/14 03:12:46;;;;;;;43.13;8.63;;;14.40;99.90;;;;;;5052774;28;20400;-66
2022/05/14 03:15:13;;;;;;;41.55;8.73;;;14.40;99.90;;;;;;5066914;28;20402;-65
2022/05/14 03:17:39;;;;;;;47.55;9.52;;;14.40;99.90;;;;;;5065478;28;20741;-65
2022/05/14 03:20:07;;;;;;;44.50;9.53;;;14.40;99.90;;;;;;5051199;28;20404;-65
2022/05/14 03:22:35;;;;;;;42.83;9.23;;;14.40;99.90;;;;;;5065207;28;20409;-65
2022/05/14 03:25:02;;;;;;;46.70;9.60;;;14.30;99.90;;;;;;5069725;28;20898;-65
2022/05/14 03:27:28;;;;;;;47.08;9.13;;;14.30;99.90;;;;;;5066911;28;21033;-64
2022/05/14 03:29:54;;;;;;;45.93;9.53;;;14.30;99.90;;;;;;5068543;28;20423;-65
2022/05/14 03:32:20;;;;;;;39.90;8.82;;;14.20;99.90;;;;;;5046347;28;20409;-66
2022/05/14 03:34:46;;;;;;;45.38;9.35;;;14.20;99.90;;;;;;5070565;28;20747;-65
2022/05/14 03:37:13;;;;;;;38.42;8.90;;;14.20;99.90;;;;;;5068444;28;20415;-66
2022/05/14 03:39:39;;;;;;;49.22;9.95;;;14.20;99.90;;;;;;5068167;28;20391;-64
2022/05/14 03:42:06;;;;;;;49.00;9.70;;;14.20;99.90;;;;;;5067257;28;20517;-67
2022/05/14 03:44:32;;;;;;;51.80;10.47;;;14.20;99.90;;;;;;5067004;28;20400;-66
2022/05/14 03:46:58;;;;;;;48.35;9.40;;;14.20;99.90;;;;;;5067584;28;20415;-66
2022/05/14 03:49:24;;;;;;;45.03;10.10;;;14.10;99.90;;;;;;5066162;28;20494;-66
2022/05/14 03:51:50;;;;;;;53.13;9.97;;;14.10;99.90;;;;;;5069060;28;20484;-66
2022/05/14 03:54:16;;;;;;;49.50;9.43;;;14.10;99.90;;;;;;5067315;28;20415;-66
2022/05/14 03:56:42;;;;;;;43.23;10.00;;;14.10;99.90;;;;;;5069615;28;20873;-66
2022/05/14 03:59:09;;;;;;;50.78;9.60;;;14.10;99.90;;;;;;5064324;28;20414;-69
2022/05/14 04:01:35;;;;;;;45.55;9.45;;;14.10;99.90;;;;;;5068363;28;20399;-67
2022/05/14 04:04:01;;;;;;;44.33;9.73;;;14.10;99.90;;;;;;5067975;28;20400;-67
2022/05/14 04:06:28;;;;;;;39.83;10.02;;;14.10;99.90;;;;;;5067081;28;20431;-69
2022/05/14 04:08:53;;;;;;;47.42;9.90;;;14.10;99.90;;;;;;5067752;28;20476;-66
2022/05/14 04:11:19;;;;;;;49.80;10.20;;;14.10;99.90;;;;;;5068152;28;20891;-66
2022/05/14 04:13:46;;;;;;;47.25;9.90;;;14.00;99.90;;;;;;5067180;28;20411;-65
2022/05/14 04:16:12;;;;;;;43.08;10.15;;;14.00;99.90;;;;;;5068752;28;20398;-64
2022/05/14 04:18:38;;;;;;;42.13;9.67;;;14.00;99.90;;;;;;5061528;28;20411;-66
2022/05/14 04:21:05;;;;;;;44.17;9.90;;;14.00;99.90;;;;;;5066508;28;20407;-67
2022/05/14 04:23:32;;;;;;;41.80;9.98;;;14.00;99.90;;;;;;5050638;28;20873;-65
2022/05/14 04:25:59;;;;;;;48.72;10.15;;;14.00;99.90;;;;;;5062310;28;20455;-66
2022/05/14 04:28:26;;;;;;;47.90;10.20;;;14.00;99.90;;;;;;5067054;28;20408;-65
2022/05/14 04:30:53;;;;;;;50.25;10.00;;;14.00;99.90;;;;;;5066445;28;20487;-65
2022/05/14 04:33:20;;;;;;;38.67;9.52;;;13.90;99.90;;;;;;5066969;28;20479;-68
2022/05/14 04:35:46;;;;;;;40.53;9.70;;;14.00;99.90;;;;;;5068686;28;20400;-66
2022/05/14 04:38:13;;;;;;;43.20;10.23;;;14.00;99.90;;;;;;5072444;28;20427;-66
2022/05/14 04:40:39;;;;;;;45.17;9.93;;;14.00;99.90;;;;;;5065681;28;20848;-67
2022/05/14 04:43:10;;;;;;;41.40;9.65;;;14.00;99.90;;;;;;5067271;28;20428;-66
2022/05/14 04:45:38;;;;;;;45.67;10.55;;;14.00;99.90;;;;;;5068597;28;20423;-67
2022/05/14 04:48:05;;;;;;;41.08;9.48;;;14.00;99.90;;;;;;5067555;28;20415;-67
2022/05/14 04:50:32;;;;;;;44.78;9.38;;;14.00;99.90;;;;;;5067954;28;20478;-66
2022/05/14 04:52:59;;;;;;;46.77;9.73;;;14.00;99.90;;;;;;5062459;28;20919;-67
2022/05/14 04:55:26;;;;;;;42.90;9.80;;;14.00;99.90;;;;;;5048191;28;20396;-67
2022/05/14 04:57:52;;;;;;;43.47;9.60;;;14.00;99.90;;;;;;5064744;28;20411;-64
2022/05/14 05:00:19;;;;;;;43.20;10.50;;;14.00;99.90;;;;;;5061670;28;20410;-66
2022/05/14 05:05:30;;;;;;;36.67;9.63;;;14.00;99.90;;;;;;5064729;28;20461;-66
2022/05/14 05:07:57;;;;;;;37.70;9.65;;;14.10;99.90;;;;;;5063814;28;20449;-67
2022/05/14 05:10:23;;;;;;;44.00;9.73;;;14.10;99.90;;;;;;5063739;28;20411;-68
2022/05/14 05:12:49;;;;;;;44.27;9.87;;;14.10;99.90;;;;;;5066692;28;20406;-67
2022/05/14 05:15:16;;;;;;;42.35;10.35;;;14.10;99.90;;;;;;5066574;28;20418;-67
2022/05/14 05:17:42;;;;;;;44.88;9.95;;;14.10;99.90;;;;;;5068674;28;20400;-68
2022/05/14 05:20:09;;;;;;;41.58;10.20;;;14.20;99.90;;;;;;5063322;28;20830;-66
2022/05/14 05:22:37;;;;;;;40.42;9.73;;;14.20;99.90;;;;;;5064140;28;20419;-66
2022/05/14 05:25:06;;;;;;;38.40;9.35;;;14.20;99.90;;;;;;5063800;28;20494;-68
2022/05/14 05:27:32;;;;;;;39.58;10.15;;;14.30;99.90;;;;;;5068663;28;20900;-68
2022/05/14 05:29:58;;;;;;;40.23;10.00;;;14.30;99.90;;;;;;5063156;28;20495;-66
2022/05/14 05:32:24;;;;;;;50.85;10.13;;;14.30;99.90;;;;;;5066521;28;20523;-66
2022/05/14 05:34:49;;;;;;;37.75;8.15;;;14.00;99.90;;;;;;5066184;28;20235;-68
2022/05/14 05:37:15;;;;;;;28.17;8.77;;;13.80;99.90;;;;;;5069367;28;20716;-66
2022/05/14 05:39:41;;;;;;;34.72;8.98;;;13.60;99.90;;;;;;5065101;28;20611;-67
2022/05/14 05:42:07;;;;;;;31.35;8.90;;;13.50;99.90;;;;;;5065800;28;20232;-70
2022/05/14 05:44:33;;;;;;;39.25;8.98;;;13.40;99.90;;;;;;5067118;28;20241;-66
2022/05/14 05:47:03;;;;;;;37.75;8.52;;;13.40;99.90;;;;;;5065826;28;20218;-67
2022/05/14 05:49:29;;;;;;;43.58;9.07;;;13.40;99.90;;;;;;5066554;28;20183;-64
2022/05/14 05:51:55;;;;;;;34.70;9.25;;;13.30;99.90;;;;;;5065075;28;20240;-65
2022/05/14 05:57:18;;;;;;;36.45;8.15;;;13.40;99.90;;;;;;5044262;28;20219;-66
2022/05/14 05:59:44;;;;;;;32.38;8.18;;;13.40;99.90;;;;;;5064754;28;20670;-66
2022/05/14 06:02:10;;;;;;;29.02;8.23;;;13.40;99.90;;;;;;5067209;28;20221;-66
2022/05/14 06:04:36;;;;;;;32.75;8.60;;;13.40;99.90;;;;;;5066067;28;20662;-66
2022/05/14 06:07:03;;;;;;;33.50;8.48;;;13.40;99.90;;;;;;5067763;28;20206;-66
2022/05/14 06:09:30;;;;;;;37.08;9.05;;;13.50;99.90;;;;;;5065271;28;20265;-66
2022/05/14 06:11:58;;;;;;;41.03;8.98;;;13.50;99.90;;;;;;5064834;28;20212;-66
2022/05/14 06:14:25;;;;;;;30.02;8.20;;;13.50;99.90;;;;;;5066820;28;20243;-66
2022/05/14 06:16:52;;;;;;;37.70;9.40;;;13.60;99.90;;;;;;5063930;28;20427;-66
2022/05/14 06:19:18;;;;;;;37.67;8.33;;;14.10;99.90;;;;;;5066387;28;20451;-67
2022/05/14 06:21:44;;;;;;;29.95;7.45;;;14.50;99.90;;;;;;5064578;28;20532;-66
2022/05/14 06:24:10;;;;;;;29.15;8.10;;;14.20;99.90;;;;;;5064748;28;20423;-65
2022/05/14 06:26:37;;;;;;;31.05;8.02;;;14.60;99.90;;;;;;5064903;28;20419;-66
2022/05/14 06:29:06;;;;;;;34.93;8.17;;;14.80;99.90;;;;;;5066416;28;20411;-65
2022/05/14 06:31:33;;;;;;;35.67;8.02;;;15.00;99.90;;;;;;5062558;28;20433;-65
2022/05/14 06:33:59;;;;;;;30.88;8.15;;;15.10;99.90;;;;;;5055872;28;20406;-66
2022/05/14 06:36:25;;;;;;;32.22;7.45;;;15.20;99.90;;;;;;5062610;28;20411;-67
2022/05/14 06:38:52;;;;;;;36.50;7.88;;;15.30;99.90;;;;;;5061232;28;20418;-64
2022/05/14 06:41:17;;;;;;;29.35;7.43;;;15.50;99.90;;;;;;5064636;28;20190;-65
2022/05/14 06:43:43;;;;;;;24.05;6.72;;;15.20;99.90;;;;;;5068740;28;20289;-65
2022/05/14 06:46:09;;;;;;;35.15;7.78;;;14.90;99.90;;;;;;5066021;28;20186;-65
2022/05/14 06:48:35;;;;;;;31.83;8.48;;;14.80;99.90;;;;;;5065924;28;20619;-66
2022/05/14 06:51:17;;;;;;;41.30;8.20;;;14.80;99.90;;;;;;5067066;28;20257;-70
2022/05/14 06:53:43;;;;;;;24.38;6.97;;;14.70;99.90;;;;;;5069216;28;20178;-69
2022/05/14 06:56:11;;;;;;;31.85;6.28;;;14.60;99.90;;;;;;5066667;28;20193;-68
2022/05/14 06:58:40;;;;;;;29.60;6.80;;;14.60;99.90;;;;;;5068663;28;20186;-69
2022/05/14 07:01:06;;;;;;;28.25;6.72;;;14.60;99.90;;;;;;5059393;28;20187;-68
2022/05/14 07:06:38;;;;;;;26.00;6.47;;;14.70;99.90;;;;;;5065178;28;20686;-69
2022/05/14 07:09:06;;;;;;;33.63;6.40;;;14.70;99.90;;;;;;5065593;28;21248;-68
2022/05/14 07:11:35;;;;;;;21.33;6.30;;;14.70;99.90;;;;;;5062087;28;20195;-71
2022/05/14 07:14:02;;;;;;;21.05;5.82;;;14.80;99.90;;;;;;5065622;28;20666;-67
2022/05/14 07:16:28;;;;;;;33.35;7.20;;;14.80;99.90;;;;;;5066289;28;20197;-68
2022/05/14 07:18:54;;;;;;;20.35;5.72;;;14.80;99.90;;;;;;5065157;28;20182;-67
2022/05/14 07:21:20;;;;;;;20.63;5.80;;;14.90;99.90;;;;;;5066689;28;20235;-68
2022/05/14 07:23:45;;;;;;;29.58;6.35;;;14.90;99.90;;;;;;5067008;28;20205;-69
2022/05/14 07:26:11;;;;;;;29.08;5.82;;;15.00;99.90;;;;;;5064542;28;20183;-69
2022/05/14 07:28:37;;;;;;;19.73;5.60;;;15.00;99.90;;;;;;5063857;28;20190;-67
2022/05/14 07:31:04;;;;;;;32.58;5.75;;;15.10;99.90;;;;;;5060157;28;20187;-69
2022/05/14 07:33:31;;;;;;;19.38;5.20;;;15.10;99.90;;;;;;5066511;28;20728;-69
2022/05/14 07:36:05;;;;;;;19.80;5.00;;;15.20;99.90;;;;;;5063293;28;20666;-68
2022/05/14 07:38:34;;;;;;;22.10;5.30;;;15.20;99.90;;;;;;5065012;28;20186;-69
2022/05/14 07:41:01;;;;;;;23.77;4.95;;;15.30;99.90;;;;;;5065467;28;20190;-70
2022/05/14 07:43:30;;;;;;;24.90;5.28;;;15.40;99.90;;;;;;5067636;28;20187;-69
2022/05/14 07:46:02;;;;;;;26.98;5.85;;;15.40;99.90;;;;;;5065018;28;21165;-68
2022/05/14 07:48:33;;;;;;;25.85;5.72;;;16.00;99.70;;;;;;5065769;28;20471;-69
2022/05/14 07:51:09;;;;;;;22.10;5.30;;;16.40;97.90;;;;;;5067445;28;20478;-70
2022/05/14 07:53:39;;;;;;;22.38;5.50;;;16.70;96.60;;;;;;5069279;28;20403;-69
2022/05/14 07:56:08;;;;;;;22.77;5.45;;;16.80;95.80;;;;;;5066702;28;20407;-69
2022/05/14 07:58:37;;;;;;;23.53;5.50;;;17.00;94.50;;;;;;5068382;28;20435;-69
2022/05/14 08:01:03;;;;;;;23.45;5.47;;;17.20;94.10;;;;;;5066011;28;20415;-70
2022/05/14 08:03:30;;;;;;;24.60;5.30;;;17.30;93.10;;;;;;5069736;28;20486;-69
2022/05/14 08:05:57;;;;;;;24.75;5.22;;;17.50;92.70;;;;;;5065928;28;20407;-69
2022/05/14 08:08:23;;;;;;;21.38;4.97;;;17.60;91.80;;;;;;5070423;28;20399;-69
2022/05/14 08:10:49;;;;;;;25.30;5.30;;;17.80;91.80;;;;;;5066941;28;20422;-68
2022/05/14 08:13:17;;;;;;;23.02;5.00;;;17.90;91.40;;;;;;5067028;28;20740;-68
2022/05/14 08:15:44;;;;;;;21.90;5.00;;;18.00;90.40;;;;;;5066564;28;20407;-69
2022/05/14 08:18:10;;;;;;;23.90;5.20;;;18.10;89.90;;;;;;5064461;28;20513;-69
2022/05/14 08:20:39;;;;;;;27.17;5.20;;;18.30;88.80;;;;;;5069433;28;20391;-68
2022/05/14 08:25:51;;;;;;;20.77;5.25;;;18.60;86.80;;;;;;5067669;28;20465;-68
2022/05/14 08:28:18;;;;;;;22.73;5.20;;;18.90;84.10;;;;;;5067266;28;20830;-68
2022/05/14 08:30:44;;;;;;;21.33;4.93;;;19.20;81.30;;;;;;5066948;28;20549;-69
2022/05/14 08:33:11;;;;;;;21.37;4.77;;;19.40;78.60;;;;;;5067685;28;20979;-68
2022/05/14 08:35:38;;;;;;;20.80;4.90;;;19.60;77.80;;;;;;5068851;28;20500;-67
2022/05/14 08:38:04;;;;;;;19.98;4.90;;;19.70;75.70;;;;;;5066454;28;20523;-69
2022/05/14 08:40:37;;;;;;;18.83;4.03;;;19.80;75.30;;;;;;5069817;28;20402;-69
2022/05/14 08:43:08;;;;;;;15.73;4.57;;;20.00;74.60;;;;;;5068175;28;21600;-68
2022/05/14 08:45:36;;;;;;;17.13;4.40;;;20.10;73.50;;;;;;5066492;28;20403;-68
2022/05/14 08:48:10;;;;;;;19.20;4.57;;;20.20;72.20;;;;;;5047908;28;20490;-68
2022/05/14 08:50:37;;;;;;;;;;;20.50;72.70;;;;;;5071146;28;19913;-68
2022/05/14 08:53:04;;;;;;;;;;;20.80;71.60;;;;;;5051012;28;19962;-68
2022/05/14 08:55:48;;;;;;;;;;;21.30;67.40;;;;;;5069014;28;20289;-68
2022/05/14 08:58:14;;;;;;;;;;;21.80;65.50;;;;;;5054179;28;20039;-69
2022/05/14 09:00:39;;;;;;;;;;;22.50;62.50;;;;;;5068019;28;19995;-70
2022/05/14 09:03:05;;;;;;;;;;;23.30;59.40;;;;;;5065375;28;19912;-68
2022/05/14 09:05:32;;;;;;;;;;;24.10;57.00;;;;;;5070887;28;19999;-68
2022/05/14 09:07:58;;;;;;;;;;;25.00;53.80;;;;;;5065040;28;20429;-68
2022/05/14 09:10:32;;;;;;;;;;;26.00;49.30;;;;;;5067918;28;19999;-68
2022/05/14 09:13:09;;;;;;;;;;;26.90;46.80;;;;;;5066343;28;19948;-69
2022/05/14 09:15:41;;;;;;;;;;;27.90;43.40;;;;;;5069363;28;19908;-70
2022/05/14 09:18:08;;;;;;;;;;;28.70;40.20;;;;;;5067818;28;19916;-69
2022/05/14 09:20:42;;;;;;;;;;;29.30;39.00;;;;;;5068748;28;19919;-69
2022/05/14 09:23:07;;;;;;;;;;;29.70;38.10;;;;;;5067181;28;20015;-69
2022/05/14 09:25:36;;;;;;;;;;;30.20;35.90;;;;;;5066750;28;19999;-69
2022/05/14 09:28:05;;;;;;;;;;;30.40;34.70;;;;;;5066933;28;19943;-69
2022/05/14 09:30:39;;;;;;;;;;;30.70;34.70;;;;;;5069297;28;20336;-68
2022/05/14 09:33:06;;;;;;;;;;;31.10;33.50;;;;;;5067303;28;20281;-69
2022/05/14 09:35:32;;;;;;;;;;;31.70;32.70;;;;;;5067593;28;20269;-69
2022/05/14 09:38:12;;;;;;;;;;;32.40;32.20;;;;;;5066327;28;19927;-67
2022/05/14 09:40:38;;;;;;;;;;;32.50;30.90;;;;;;5068973;28;20005;-70
2022/05/14 09:43:09;;;;;;;;;;;32.60;31.00;;;;;;5064972;28;19916;-70
2022/05/14 09:45:36;;;;;;;;;;;32.80;31.10;;;;;;5068313;28;19912;-70
2022/05/14 09:48:28;;;;;;;;;;;33.20;30.30;;;;;;5065527;28;20058;-69
2022/05/14 09:50:56;;;;;;;;;;;33.40;31.00;;;;;;5065778;28;19923;-69
2022/05/14 09:53:30;;;;;;;;;;;33.80;30.20;;;;;;5064466;28;19913;-69
2022/05/14 09:55:56;;;;;;;;;;;34.40;29.40;;;;;;5066672;28;19919;-69
2022/05/14 09:58:21;;;;;;;;;;;34.80;28.10;;;;;;5062776;28;19912;-69
2022/05/14 10:01:01;;;;;;;;;;;35.00;27.90;;;;;;5067212;28;19916;-70
2022/05/14 10:03:49;;;;;;;;;;;35.30;27.70;;;;;;5048135;28;20251;-67
2022/05/14 10:06:28;;;;;;;;;;;35.90;27.10;;;;;;5069829;28;21528;-69
2022/05/14 10:09:18;;;;;;;17.15;4.30;;;36.90;26.10;;;;;;5064973;28;19912;-69
2022/05/14 10:11:46;;;;;;;;;;;37.70;25.10;;;;;;5068808;28;20398;-67
2022/05/14 10:14:12;;;;;;;;;;;38.20;24.60;;;;;;5067022;28;20418;-68
2022/05/14 10:16:43;;;;;;;;;;;38.60;24.30;;;;;;5069359;28;19909;-68
2022/05/14 10:19:12;;;;;;;16.30;4.30;;;39.00;23.70;;;;;;5049376;28;20414;-69
2022/05/14 10:22:04;;;;;;;15.87;4.00;;;39.60;22.70;;;;;;5066705;28;20422;-68
2022/05/14 10:27:42;;;;;;;19.42;4.10;;;40.70;22.40;;;;;;5066864;28;20411;-68
2022/05/14 10:30:21;;;;;;;16.35;4.13;;;41.00;21.40;;;;;;5062617;28;20944;-70
2022/05/14 10:33:05;;;;;;;19.95;4.47;;;40.90;21.40;;;;;;5063716;28;20452;-68
2022/05/14 10:35:55;;;;;;;17.90;4.18;;;40.80;21.40;;;;;;5066919;28;20399;-70
2022/05/14 10:38:30;;;;;;;17.43;4.40;;;40.40;21.80;;;;;;5065547;28;20455;-71
2022/05/14 10:41:02;;;;;;;19.30;4.40;;;38.90;22.70;;;;;;5062162;28;20438;-71
2022/05/14 10:43:54;;;;;;;17.70;4.53;;;37.10;24.40;;;;;;5061882;28;20435;-70
2022/05/14 10:46:22;;;;;;;17.92;4.90;;;35.50;26.00;;;;;;5063390;28;20491;-70
2022/05/14 10:48:55;;;;;;;;;;;34.30;27.00;;;;;;5066786;28;20407;-70
2022/05/14 10:51:28;;;;;;;16.00;4.43;;;33.30;28.30;;;;;;5063584;28;20778;-70
2022/05/14 10:53:54;;;;;;;;;;;32.40;29.00;;;;;;5064695;28;20957;-69
2022/05/14 10:56:34;;;;;;;;;;;31.50;29.60;;;;;;5067756;28;20463;-70
2022/05/14 10:59:09;;;;;;;;;;;30.70;30.80;;;;;;5052053;28;19996;-70
2022/05/14 11:01:52;;;;;;;;;;;30.10;32.10;;;;;;5065571;28;19994;-70
2022/05/14 11:04:22;;;;;;;;;;;29.60;32.60;;;;;;5062726;28;24087;-69
2022/05/14 11:06:58;;;;;;;;;;;29.10;33.40;;;;;;5064039;28;19917;-70
2022/05/14 11:09:42;;;;;;;;;;;28.90;34.30;;;;;;5065218;28;20009;-70
2022/05/14 11:12:14;;;;;;;;;;;28.80;34.70;;;;;;5065827;28;20373;-69
2022/05/14 11:14:39;;;;;;;;;;;28.80;34.60;;;;;;5067022;28;19921;-70
2022/05/14 11:17:16;;;;;;;;;;;28.90;34.70;;;;;;5065452;28;19923;-70
2022/05/14 11:19:41;;;;;;;;;;;29.10;34.50;;;;;;5062958;28;19928;-70
2022/05/14 11:22:18;;;;;;;;;;;29.20;34.80;;;;;;5067203;28;19920;-70
2022/05/14 11:24:43;;;;;;;;;;;29.10;33.90;;;;;;5070384;28;20308;-70
2022/05/14 11:27:09;;;;;;;;;;;29.10;34.00;;;;;;5071952;28;19924;-71
2022/05/14 11:29:48;;;;;;;;;;;29.00;34.60;;;;;;5070432;28;19916;-72
2022/05/14 11:32:16;;;;;;;;;;;29.00;34.40;;;;;;5069508;28;19935;-71
2022/05/14 11:34:51;;;;;;;;;;;29.10;34.30;;;;;;5067251;28;20001;-70
2022/05/14 11:37:26;;;;;;;;;;;29.20;34.40;;;;;;5070398;28;20012;-71
2022/05/14 11:40:02;;;;;;;;;;;29.40;33.90;;;;;;5065979;28;19920;-70
2022/05/14 11:42:29;;;;;;;;;;;29.40;33.70;;;;;;5071687;28;19919;-70
2022/05/14 11:45:01;;;;;;;;;;;29.30;34.00;;;;;;5069057;28;19917;-70
2022/05/14 11:47:33;;;;;;;;;;;29.40;34.00;;;;;;5070043;28;19923;-69
2022/05/14 11:50:03;;;;;;;;;;;29.30;34.10;;;;;;5068568;28;19916;-69
2022/05/14 11:52:48;;;;;;;;;;;29.30;33.90;;;;;;5072594;28;19916;-70
2022/05/14 11:55:24;;;;;;;;;;;29.30;33.60;;;;;;5069564;28;20337;-70
2022/05/14 11:57:53;;;;;;;;;;;29.20;33.80;;;;;;5068259;28;19920;-71
2022/05/14 12:00:25;;;;;;;;;;;29.30;33.90;;;;;;5064623;28;19912;-71
2022/05/14 12:03:02;;;;;;;;;;;29.40;33.90;;;;;;5068354;28;19970;-70
2022/05/14 12:05:31;;;;;;;;;;;29.40;33.30;;;;;;5069588;28;19948;-71
2022/05/14 12:08:15;;;;;;;;;;;29.50;33.60;;;;;;5069007;28;20373;-69
2022/05/14 12:11:00;;;;;;;;;;;29.60;33.90;;;;;;5068863;28;19956;-69
2022/05/14 12:13:45;;;;;;;;;;;29.70;33.30;;;;;;5070837;28;20277;-70
2022/05/14 12:16:11;;;;;;;;;;;29.60;33.50;;;;;;5067692;28;19913;-70
2022/05/14 12:18:40;;;;;;;;;;;29.50;33.40;;;;;;5071696;28;19919;-70
2022/05/14 12:21:06;;;;;;;;;;;29.20;33.70;;;;;;5068148;28;19923;-70
2022/05/14 12:23:32;;;;;;;;;;;29.30;33.90;;;;;;5070822;28;19912;-70
2022/05/14 12:25:58;;;;;;;;;;;29.40;33.70;;;;;;5069622;28;19921;-71
2022/05/14 12:28:23;;;;;;;;;;;29.60;33.40;;;;;;5068260;28;19932;-68
2022/05/14 12:33:50;;;;;;;;;;;30.40;33.40;;;;;;5070582;28;20282;-70
2022/05/14 12:36:15;;;;;;;;;;;30.90;32.00;;;;;;5067447;28;20331;-69
2022/05/14 12:38:41;;;;;;;;;;;31.10;31.10;;;;;;5066886;28;19913;-68
2022/05/14 12:41:14;;;;;;;;;;;31.00;31.00;;;;;;5068875;28;20388;-68
2022/05/14 12:43:42;;;;;;;;;;;31.00;31.60;;;;;;5069873;28;19921;-69
2022/05/14 12:46:09;;;;;;;;;;;30.90;31.30;;;;;;5069435;28;19923;-68
2022/05/14 12:48:42;;;;;;;;;;;30.70;31.10;;;;;;5069817;28;19919;-68
2022/05/14 12:51:08;;;;;;;;;;;30.50;31.50;;;;;;5067437;28;20277;-68
2022/05/14 12:53:36;;;;;;;;;;;30.50;32.30;;;;;;5068804;28;19913;-68
2022/05/14 12:56:02;;;;;;;;;;;30.70;31.90;;;;;;5066841;28;19992;-67
2022/05/14 12:58:29;;;;;;;;;;;30.80;32.20;;;;;;5068259;28;20345;-69
2022/05/14 13:00:55;;;;;;;;;;;30.90;31.00;;;;;;5066514;28;19919;-69
2022/05/14 13:03:25;;;;;;;;;;;31.00;32.10;;;;;;5069570;28;19917;-70
2022/05/14 13:06:08;;;;;;;;;;;31.10;31.60;;;;;;5068458;28;19923;-70
2022/05/14 13:08:34;;;;;;;;;;;31.00;31.50;;;;;;5065367;28;19921;-70
2022/05/14 13:11:01;;;;;;;;;;;30.90;31.80;;;;;;5068530;28;19923;-70
2022/05/14 13:13:40;;;;;;;;;;;30.90;31.90;;;;;;5065350;28;19930;-69
2022/05/14 13:16:31;;;;;;;;;;;30.90;31.60;;;;;;5067744;28;19920;-69
2022/05/14 13:18:58;;;;;;;;;;;30.60;31.50;;;;;;5067766;28;19920;-69
2022/05/14 13:21:26;;;;;;;;;;;30.10;31.50;;;;;;5068366;28;20428;-70
2022/05/14 13:23:52;;;;;;;;;;;29.60;32.20;;;;;;5070406;28;21632;-70
2022/05/14 13:26:26;;;;;;;;;;;29.20;33.40;;;;;;5068190;28;19916;-69
2022/05/14 13:28:52;;;;;;;;;;;29.10;33.50;;;;;;5070115;28;19912;-68
2022/05/14 13:31:23;;;;;;;;;;;29.10;34.30;;;;;;5062000;28;19917;-71
2022/05/14 13:33:58;;;;;;;;;;;29.00;34.20;;;;;;5069638;28;19912;-69
2022/05/14 13:39:14;;;;;;;;;;;28.80;33.80;;;;;;5067246;28;19920;-70
2022/05/14 13:41:42;;;;;;;;;;;28.70;34.80;;;;;;5066906;28;19912;-70